Time;durP1;ratioP1;P1;durP2;ratioP2;P2;SDS_P1;SDS_P2;PMS_P1;PMS_P2;Temp;Humidity;BMP_temperature;BMP_pressure;BME280_temperature;BME280_humidity;BME280_pressure;Samples;Min_cycle;Max_cycle;Signal;HPM_P1;HPM_P2
2021/07/08 00:00:56;;;;;;;9.15;4.62;;;;;;;21.89;71.01;100455.20;1691105;84;20945;-74
2021/07/08 00:03:24;;;;;;;6.75;3.92;;;;;;;21.86;71.05;100457.20;1684585;84;21511;-74
2021/07/08 00:05:53;;;;;;;6.28;4.10;;;;;;;21.83;71.12;100458.60;1679209;85;21117;-73
2021/07/08 00:08:19;;;;;;;3.85;3.42;;;;;;;21.85;71.41;100454.20;1679059;85;21065;-71
2021/07/08 00:10:50;;;;;;;8.73;4.37;;;;;;;21.86;71.05;100459.94;1679414;85;20998;-73
2021/07/08 00:13:17;;;;;;;5.50;3.42;;;;;;;21.82;71.27;100454.27;1684425;84;21487;-73
2021/07/08 00:15:44;;;;;;;8.45;4.28;;;;;;;21.77;71.62;100456.30;1691264;84;21010;-72
2021/07/08 00:18:11;;;;;;;11.12;4.20;;;;;;;21.75;71.75;100459.33;1690902;84;21126;-71
2021/07/08 00:20:39;;;;;;;8.55;3.80;;;;;;;21.76;71.60;100456.84;1688007;84;20987;-74
2021/07/08 00:23:06;;;;;;;6.37;4.03;;;;;;;21.79;71.40;100462.26;1689316;84;21073;-74
2021/07/08 00:25:34;;;;;;;4.25;3.85;;;;;;;21.77;71.46;100457.66;1661723;85;21021;-76
2021/07/08 00:28:01;;;;;;;6.75;3.85;;;;;;;21.73;71.63;100462.36;1679016;85;21019;-75
2021/07/08 00:30:27;;;;;;;4.85;3.70;;;;;;;21.70;71.74;100467.64;1678923;85;21210;-78
2021/07/08 00:32:54;;;;;;;6.62;4.97;;;;;;;21.69;71.71;100457.80;1679590;84;21029;-76
2021/07/08 00:35:20;;;;;;;6.03;3.72;;;;;;;21.71;71.73;100461.06;1682441;84;20994;-75
2021/07/08 00:37:47;;;;;;;6.58;4.12;;;;;;;21.72;71.75;100462.69;1716599;83;20998;-76
2021/07/08 00:40:15;;;;;;;6.55;3.85;;;;;;;21.76;71.59;100465.06;1711165;83;21535;-75
2021/07/08 00:42:42;;;;;;;6.12;4.03;;;;;;;21.80;71.42;100462.52;1711232;83;21113;-75
2021/07/08 00:45:11;;;;;;;4.55;4.10;;;;;;;21.79;71.36;100462.26;1713987;82;21479;-74
2021/07/08 00:47:38;;;;;;;6.47;4.80;;;;;;;21.79;71.34;100465.00;1716664;83;20999;-78
2021/07/08 00:50:07;;;;;;;8.05;5.15;;;;;;;21.76;71.41;100460.95;1687252;83;20999;-78
2021/07/08 00:52:35;;;;;;;9.83;4.65;;;;;;;21.69;71.82;100455.06;1726184;83;20982;-74
2021/07/08 00:55:05;;;;;;;9.03;4.75;;;;;;;21.65;72.13;100465.00;1726708;83;21017;-74
2021/07/08 00:57:31;;;;;;;10.80;5.05;;;;;;;21.64;72.04;100464.19;1726293;83;20942;-73
2021/07/08 00:59:58;;;;;;;13.45;5.22;;;;;;;21.54;72.33;100469.86;1718078;82;20983;-75
2021/07/08 01:02:25;;;;;;;14.75;5.62;;;;;;;21.48;72.68;100462.89;1723408;83;21013;-74
2021/07/08 01:04:53;;;;;;;4.95;4.55;;;;;;;21.43;73.02;100458.88;1696120;84;21554;-73
2021/07/08 01:07:23;;;;;;;7.12;4.58;;;;;;;21.40;73.14;100459.47;1686899;83;21914;-74
2021/07/08 01:09:50;;;;;;;8.05;4.05;;;;;;;21.35;73.43;100459.56;1730170;82;20947;-74
2021/07/08 01:12:17;;;;;;;5.10;3.75;;;;;;;21.27;73.67;100465.73;1708376;82;20987;-73
2021/07/08 01:14:44;;;;;;;5.00;4.50;;;;;;;21.24;73.87;100467.72;1731435;82;21007;-73
2021/07/08 01:17:10;;;;;;;8.60;4.08;;;;;;;21.22;73.77;100472.13;1708298;82;21023;-75
2021/07/08 01:19:41;;;;;;;6.70;4.20;;;;;;;21.27;73.39;100467.11;1731519;82;20975;-74
2021/07/08 01:22:07;;;;;;;4.55;3.77;;;;;;;21.26;73.50;100470.40;1726084;83;20982;-74
2021/07/08 01:24:34;;;;;;;5.62;4.15;;;;;;;21.26;73.50;100475.05;1726134;83;20987;-73
2021/07/08 01:27:01;;;;;;;5.25;4.10;;;;;;;21.25;73.62;100470.14;1726243;83;20982;-75
2021/07/08 01:29:29;;;;;;;3.72;3.40;;;;;;;21.22;73.77;100471.30;1703457;83;20970;-74
2021/07/08 01:31:55;;;;;;;4.50;3.60;;;;;;;21.22;73.82;100478.14;1715431;83;21205;-76
2021/07/08 01:34:22;;;;;;;5.58;3.58;;;;;;;21.21;73.72;100473.78;1701349;84;20979;-74
2021/07/08 01:36:49;;;;;;;8.43;5.17;;;;;;;21.16;74.05;100482.08;1700335;83;21026;-74
2021/07/08 01:39:17;;;;;;;11.05;5.58;;;;;;;21.09;74.40;100475.61;1670565;85;21758;-74
2021/07/08 01:41:44;;;;;;;5.83;4.17;;;;;;;21.06;74.59;100483.03;1673033;85;20995;-75
2021/07/08 01:44:11;;;;;;;8.88;4.33;;;;;;;21.00;74.91;100482.89;1658119;85;21049;-74
2021/07/08 01:46:38;;;;;;;9.00;4.30;;;;;;;20.98;74.90;100482.36;1694134;84;20990;-74
2021/07/08 01:49:05;;;;;;;7.17;4.03;;;;;;;21.02;74.65;100479.83;1658111;85;21006;-74
2021/07/08 01:51:34;;;;;;;5.72;3.60;;;;;;;21.00;74.72;100481.52;1694297;84;21505;-74
2021/07/08 01:54:03;;;;;;;10.68;4.22;;;;;;;21.01;74.77;100485.04;1679219;85;21580;-73
2021/07/08 01:56:29;;;;;;;5.17;3.92;;;;;;;20.99;74.92;100481.25;1701661;84;21122;-75
2021/07/08 01:58:56;;;;;;;6.45;3.92;;;;;;;20.99;74.97;100490.83;1647689;86;21512;-74
2021/07/08 02:01:22;;;;;;;6.05;4.45;;;;;;;20.95;75.38;100489.00;1701405;84;20952;-75
2021/07/08 02:03:49;;;;;;;7.65;4.03;;;;;;;20.85;75.77;100487.23;1669477;86;21064;-72
2021/07/08 02:06:15;;;;;;;5.75;4.58;;;;;;;20.78;76.09;100482.69;1701616;84;21508;-73
2021/07/08 02:08:43;;;;;;;6.45;3.58;;;;;;;20.71;76.30;100480.36;1669338;85;21204;-75
2021/07/08 02:11:11;;;;;;;7.33;3.40;;;;;;;20.68;76.52;100491.05;1701261;84;21044;-74
2021/07/08 02:13:38;;;;;;;6.12;4.10;;;;;;;20.70;76.31;100488.30;1669444;85;21359;-73
2021/07/08 02:16:06;;;;;;;5.85;4.28;;;;;;;20.70;76.24;100490.21;1698206;84;20956;-73
2021/07/08 02:18:33;;;;;;;11.43;4.10;;;;;;;20.73;76.19;100493.70;1670161;85;21056;-73
2021/07/08 02:21:00;;;;;;;6.20;3.42;;;;;;;20.75;76.15;100495.05;1680341;85;21079;-73
2021/07/08 02:23:27;;;;;;;4.58;3.98;;;;;;;20.77;76.14;100494.18;1676526;84;21556;-73
2021/07/08 02:25:53;;;;;;;5.75;4.70;;;;;;;20.77;76.14;100492.81;1696502;83;21061;-73
2021/07/08 02:28:20;;;;;;;5.30;4.08;;;;;;;20.78;76.11;100501.83;1708714;84;21079;-73
2021/07/08 02:30:46;;;;;;;6.65;4.47;;;;;;;20.74;76.36;100501.63;1699339;84;20969;-73
2021/07/08 02:33:15;;;;;;;4.67;4.10;;;;;;;20.68;76.67;100497.88;1679328;85;39365;-73
2021/07/08 02:35:43;;;;;;;4.55;4.15;;;;;;;20.65;76.83;100506.14;1682059;85;20896;-74
2021/07/08 02:38:10;;;;;;;5.47;3.87;;;;;;;20.58;77.04;100498.85;1676500;85;21003;-74
2021/07/08 02:40:40;;;;;;;6.58;4.75;;;;;;;20.62;76.92;100505.37;1675802;85;21003;-74
2021/07/08 02:43:06;;;;;;;8.08;4.50;;;;;;;20.63;76.87;100505.61;1675694;85;21103;-74
2021/07/08 02:45:35;;;;;;;7.92;5.80;;;;;;;20.66;76.79;100507.77;1653598;86;21870;-74
2021/07/08 02:48:04;;;;;;;9.95;5.42;;;;;;;20.67;76.73;100509.95;1652459;86;21006;-73
2021/07/08 02:50:34;;;;;;;8.95;7.22;;;;;;;20.72;76.51;100507.14;1631115;86;21039;-73
2021/07/08 02:53:01;;;;;;;11.88;6.95;;;;;;;20.76;76.32;100509.53;1666651;85;21050;-74
2021/07/08 02:55:28;;;;;;;16.37;9.08;;;;;;;20.81;76.09;100503.98;1658648;85;20964;-73
2021/07/08 02:57:55;;;;;;;13.28;7.05;;;;;;;20.86;76.00;100501.96;1680085;85;21068;-74
2021/07/08 03:00:24;;;;;;;8.83;6.35;;;;;;;20.83;76.00;100508.03;1680015;85;20928;-74
2021/07/08 03:02:52;;;;;;;9.80;6.40;;;;;;;20.83;76.11;100511.32;1680029;84;20990;-74
2021/07/08 03:05:19;;;;;;;11.83;5.62;;;;;;;20.82;76.14;100515.16;1679955;85;20932;-73
2021/07/08 03:07:47;;;;;;;9.83;4.97;;;;;;;20.84;76.11;100511.59;1680088;85;21057;-73
2021/07/08 03:10:16;;;;;;;13.85;6.35;;;;;;;20.89;75.91;100512.88;1658131;85;21071;-74
2021/07/08 03:12:42;;;;;;;8.80;6.65;;;;;;;20.89;76.00;100521.89;1679745;85;20986;-74
2021/07/08 03:15:10;;;;;;;5.95;5.00;;;;;;;20.90;76.09;100513.14;1680019;85;20983;-74
2021/07/08 03:17:39;;;;;;;5.28;4.60;;;;;;;20.92;76.08;100514.19;1658281;85;20995;-72
2021/07/08 03:20:11;;;;;;;11.90;4.65;;;;;;;20.91;76.10;100517.47;1680240;84;21003;-74
2021/07/08 03:22:40;;;;;;;11.03;6.83;;;;;;;20.94;76.03;100512.80;1680040;84;21883;-74
2021/07/08 03:25:08;;;;;;;10.20;5.25;;;;;;;20.99;75.92;100521.47;1679672;85;20943;-72
2021/07/08 03:27:35;;;;;;;5.70;5.15;;;;;;;21.00;75.76;100528.57;1658451;84;20999;-72
2021/07/08 03:30:04;;;;;;;5.65;5.05;;;;;;;21.04;75.47;100522.75;1658484;85;20955;-73
2021/07/08 03:32:31;;;;;;;8.85;4.95;;;;;;;21.10;75.61;100525.67;1680136;85;21023;-73
2021/07/08 03:34:58;;;;;;;8.30;4.65;;;;;;;21.20;75.25;100524.13;1681509;85;21228;-73
2021/07/08 03:37:24;;;;;;;4.87;4.42;;;;;;;21.24;75.05;100528.73;1700253;83;20967;-73
2021/07/08 03:39:52;;;;;;;5.10;4.30;;;;;;;21.23;75.04;100532.58;1726453;83;21022;-74
2021/07/08 03:42:19;;;;;;;12.50;4.45;;;;;;;21.27;74.83;100540.44;1705609;83;20963;-73
2021/07/08 03:44:45;;;;;;;7.10;5.47;;;;;;;21.37;74.33;100538.08;1727822;83;21501;-73
2021/07/08 03:47:11;;;;;;;15.25;5.22;;;;;;;21.42;74.01;100536.63;1726237;82;21221;-72
2021/07/08 03:49:39;;;;;;;10.78;4.55;;;;;;;21.49;73.86;100532.92;1726638;83;21456;-73
2021/07/08 03:52:07;;;;;;;6.17;4.28;;;;;;;21.56;73.54;100537.46;1726366;83;21026;-74
2021/07/08 03:54:33;;;;;;;8.20;4.20;;;;;;;21.63;73.09;100541.97;1726433;83;20936;-73
2021/07/08 03:57:00;;;;;;;6.30;5.20;;;;;;;21.71;72.66;100538.55;1703345;83;21091;-73
2021/07/08 03:59:26;;;;;;;11.50;5.40;;;;;;;21.69;72.73;100546.24;1703213;83;21198;-73
2021/07/08 04:01:53;;;;;;;9.58;6.25;;;;;;;21.70;72.40;100543.77;1705418;83;21071;-73
2021/07/08 04:04:21;;;;;;;20.02;5.85;;;;;;;21.73;72.71;100551.92;1728636;83;21070;-73
2021/07/08 04:06:47;;;;;;;6.12;5.00;;;;;;;21.79;72.60;100547.16;1727186;83;21001;-73
2021/07/08 04:09:14;;;;;;;6.65;4.37;;;;;;;21.85;72.35;100552.25;1726375;83;21035;-73
2021/07/08 04:11:40;;;;;;;10.55;5.22;;;;;;;21.91;72.23;100553.78;1703568;83;21364;-73
2021/07/08 04:14:07;;;;;;;5.45;4.95;;;;;;;21.98;72.11;100550.09;1726432;83;20971;-74
2021/07/08 04:16:33;;;;;;;10.43;4.20;;;;;;;22.06;71.87;100556.22;1726575;83;21024;-73
2021/07/08 04:19:03;;;;;;;5.25;4.58;;;;;;;22.16;71.63;100563.42;1726405;83;21071;-72
2021/07/08 04:21:30;;;;;;;7.15;6.17;;;;;;;22.25;71.21;100560.25;1726084;83;21094;-72
2021/07/08 04:23:56;;;;;;;10.82;5.67;;;;;;;22.27;71.15;100561.28;1703431;83;21104;-72
2021/07/08 04:26:24;;;;;;;15.98;6.17;;;;;;;22.29;70.86;100563.99;1726461;83;21508;-71
2021/07/08 04:28:52;;;;;;;12.43;6.08;;;;;;;22.25;70.99;100567.09;1726162;83;20955;-71
2021/07/08 04:31:18;;;;;;;10.43;5.75;;;;;;;22.26;71.21;100564.59;1726161;83;21032;-73
2021/07/08 04:33:46;;;;;;;7.50;5.35;;;;;;;22.34;70.65;100576.22;1703488;83;21063;-72
2021/07/08 04:36:13;;;;;;;7.78;5.10;;;;;;;22.39;70.76;100572.00;1698974;84;21422;-72
2021/07/08 04:38:41;;;;;;;7.55;5.42;;;;;;;22.43;70.91;100571.64;1687893;84;20992;-73
2021/07/08 04:41:08;;;;;;;12.80;4.62;;;;;;;22.52;70.86;100577.20;1714688;83;20972;-73
2021/07/08 04:43:36;;;;;;;14.58;5.80;;;;;;;22.60;70.66;100577.84;1714801;83;21490;-73
2021/07/08 04:46:02;;;;;;;13.95;5.05;;;;;;;22.66;70.59;100582.66;1696627;83;21376;-73
2021/07/08 04:48:30;;;;;;;7.47;5.20;;;;;;;22.72;70.33;100590.50;1714757;83;21214;-75
2021/07/08 04:51:02;;;;;;;9.75;5.90;;;;;;;22.79;70.42;100592.25;1714410;82;21226;-72
2021/07/08 04:53:28;;;;;;;11.28;5.08;;;;;;;22.88;69.23;100585.45;1714688;82;21023;-73
2021/07/08 04:55:54;;;;;;;9.65;5.85;;;;;;;22.96;69.65;100592.97;1696176;83;21052;-72
2021/07/08 04:58:20;;;;;;;25.00;6.60;;;;;;;23.00;69.52;100596.71;1695770;83;21721;-73
2021/07/08 05:00:47;;;;;;;10.28;5.05;;;;;;;23.09;69.46;100596.78;1714706;83;21160;-73
2021/07/08 05:03:14;;;;;;;14.00;5.80;;;;;;;23.14;69.17;100603.52;1714716;82;21511;-73
2021/07/08 05:05:41;;;;;;;10.85;5.53;;;;;;;23.16;69.18;100605.41;1714556;82;21072;-72
2021/07/08 05:08:07;;;;;;;17.45;6.25;;;;;;;23.22;69.24;100608.25;1714619;83;21014;-74
2021/07/08 05:10:34;;;;;;;12.98;5.60;;;;;;;23.28;69.12;100611.13;1714644;83;21148;-74
2021/07/08 05:13:00;;;;;;;13.08;4.92;;;;;;;23.36;69.17;100611.19;1696218;83;21580;-74
2021/07/08 05:15:27;;;;;;;14.68;6.22;;;;;;;23.46;68.66;100614.27;1714716;83;21005;-73
2021/07/08 05:17:54;;;;;;;16.75;5.45;;;;;;;23.58;68.48;100610.97;1714742;83;20979;-74
2021/07/08 05:20:20;;;;;;;13.58;6.40;;;;;;;23.67;68.21;100611.83;1695998;83;21083;-75
2021/07/08 05:22:47;;;;;;;13.88;6.97;;;;;;;23.71;68.12;100612.81;1696585;83;21516;-74
2021/07/08 05:25:16;;;;;;;13.05;5.37;;;;;;;23.78;67.98;100615.38;1714839;83;21040;-75
2021/07/08 05:27:43;;;;;;;16.75;6.90;;;;;;;23.86;67.70;100615.98;1714863;83;21111;-73
2021/07/08 05:30:11;;;;;;;9.00;6.37;;;;;;;23.96;67.64;100616.83;1714710;83;20951;-73
2021/07/08 05:32:38;;;;;;;19.92;6.50;;;;;;;24.03;67.15;100611.70;1714810;83;20924;-74
2021/07/08 05:35:05;;;;;;;25.90;6.08;;;;;;;24.09;67.20;100618.66;1714604;83;21013;-73
2021/07/08 05:37:32;;;;;;;8.78;4.85;;;;;;;24.18;67.05;100611.28;1697672;83;21001;-73
2021/07/08 05:39:58;;;;;;;11.40;6.60;;;;;;;24.27;66.51;100615.68;1714537;83;21529;-74
2021/07/08 05:42:24;;;;;;;6.80;5.33;;;;;;;24.38;66.40;100618.14;1714591;83;21004;-74
2021/07/08 05:44:51;;;;;;;10.40;7.72;;;;;;;24.46;65.87;100618.75;1714695;83;21629;-74
2021/07/08 05:47:18;;;;;;;7.55;5.47;;;;;;;24.55;65.83;100622.33;1714718;83;20988;-74
2021/07/08 05:49:45;;;;;;;7.53;6.62;;;;;;;24.63;65.09;100631.16;1714730;83;22388;-74
2021/07/08 05:52:11;;;;;;;13.35;6.17;;;;;;;24.70;64.74;100628.73;1695922;83;20984;-74
2021/07/08 05:54:38;;;;;;;8.65;5.35;;;;;;;24.76;64.53;100617.82;1696077;83;21522;-74
2021/07/08 05:57:05;;;;;;;8.00;4.95;;;;;;;24.84;64.16;100621.17;1714659;83;21013;-73
2021/07/08 05:59:32;;;;;;;11.08;4.80;;;;;;;24.93;63.78;100622.02;1714605;83;21005;-74
2021/07/08 06:01:58;;;;;;;6.20;4.75;;;;;;;25.01;63.26;100624.52;1714783;83;21213;-73
2021/07/08 06:04:24;;;;;;;9.25;4.78;;;;;;;25.10;62.62;100628.08;1714388;83;20979;-75
2021/07/08 06:06:53;;;;;;;11.40;6.20;;;;;;;25.17;62.18;100627.04;1712506;83;21024;-74
2021/07/08 06:09:19;;;;;;;10.53;5.28;;;;;;;25.25;61.03;100622.65;1696028;83;21498;-73
2021/07/08 06:11:47;;;;;;;5.97;3.92;;;;;;;25.31;60.41;100625.48;1714862;83;21489;-75
2021/07/08 06:14:14;;;;;;;7.20;4.25;;;;;;;25.37;59.64;100623.59;1696156;83;21061;-74
2021/07/08 06:16:41;;;;;;;7.72;4.10;;;;;;;25.43;59.11;100626.44;1714677;83;21110;-73
2021/07/08 06:19:07;;;;;;;9.48;4.17;;;;;;;25.48;58.96;100622.13;1714530;83;20985;-73
2021/07/08 06:21:33;;;;;;;12.20;4.28;;;;;;;25.55;58.99;100628.00;1714627;83;20991;-74
2021/07/08 06:24:01;;;;;;;5.08;4.17;;;;;;;25.61;58.95;100625.30;1714762;83;21171;-75
2021/07/08 06:26:27;;;;;;;10.40;3.83;;;;;;;25.67;58.87;100625.94;1714501;83;21134;-74
2021/07/08 06:28:53;;;;;;;11.63;5.10;;;;;;;25.75;58.42;100623.75;1696140;83;21012;-73
2021/07/08 06:31:20;;;;;;;8.65;5.37;;;;;;;25.84;58.49;100627.28;1714757;83;20937;-74
2021/07/08 06:33:46;;;;;;;22.58;6.70;;;;;;;25.92;58.84;100627.81;1714717;83;21017;-74
2021/07/08 06:36:15;;;;;;;8.30;5.47;;;;;;;26.01;58.84;100631.92;1714427;83;22136;-72
2021/07/08 06:38:41;;;;;;;10.50;5.37;;;;;;;26.08;58.54;100630.04;1721777;82;21905;-73
2021/07/08 06:41:08;;;;;;;15.10;5.70;;;;;;;26.14;58.49;100632.86;1726889;83;20972;-74
2021/07/08 06:43:35;;;;;;;18.98;5.45;;;;;;;26.19;58.02;100633.45;1728586;83;21015;-72
2021/07/08 06:46:02;;;;;;;9.85;4.45;;;;;;;26.23;57.56;100635.85;1725855;83;21487;-73
2021/07/08 06:48:28;;;;;;;4.97;4.03;;;;;;;26.29;56.31;100637.83;1726231;83;20991;-71
2021/07/08 06:50:55;;;;;;;8.08;4.25;;;;;;;26.33;54.85;100638.21;1726349;83;21040;-75
2021/07/08 06:53:21;;;;;;;4.87;4.35;;;;;;;26.37;54.60;100639.19;1703850;83;21606;-73
2021/07/08 06:55:48;;;;;;;9.83;3.30;;;;;;;26.44;54.90;100640.03;1728580;83;20979;-73
2021/07/08 06:58:14;;;;;;;20.88;4.05;;;;;;;26.51;54.13;100645.84;1728349;83;21019;-75
2021/07/08 07:00:42;;;;;;;5.72;4.28;;;;;;;26.58;53.79;100641.16;1726384;83;21532;-75
2021/07/08 07:03:08;;;;;;;9.50;4.30;;;;;;;26.65;53.63;100644.22;1726289;83;21021;-74
2021/07/08 07:05:35;;;;;;;8.70;4.12;;;;;;;26.70;53.25;100637.13;1726393;83;20960;-77
2021/07/08 07:08:03;;;;;;;6.72;4.03;;;;;;;26.76;53.18;100636.58;1726797;83;20940;-76
2021/07/08 07:10:30;;;;;;;8.08;3.87;;;;;;;26.84;53.45;100644.59;1713671;82;21052;-81
2021/07/08 07:12:58;;;;;;;11.35;4.62;;;;;;;26.91;53.36;100639.95;1722659;83;22451;-79
2021/07/08 07:15:27;;;;;;;4.67;3.95;;;;;;;26.98;52.37;100644.34;1703448;83;21128;-75
2021/07/08 07:17:53;;;;;;;8.05;3.65;;;;;;;27.05;51.48;100645.41;1726454;83;20936;-77
2021/07/08 07:20:20;;;;;;;5.10;3.47;;;;;;;27.12;51.14;100651.80;1726385;83;21301;-74
2021/07/08 07:22:49;;;;;;;9.38;4.97;;;;;;;27.12;50.77;100651.22;1726366;83;21019;-74
2021/07/08 07:25:19;;;;;;;4.42;3.22;;;;;;;27.15;50.37;100651.11;1699692;83;21524;-73
2021/07/08 07:27:48;;;;;;;6.28;3.75;;;;;;;27.21;50.66;100655.29;1707418;84;21064;-76
2021/07/08 07:30:15;;;;;;;8.50;3.52;;;;;;;27.26;50.63;100647.61;1726317;83;20952;-76
2021/07/08 07:32:41;;;;;;;5.72;4.15;;;;;;;27.36;50.54;100658.01;1726235;83;20964;-75
2021/07/08 07:35:09;;;;;;;10.65;4.78;;;;;;;27.44;52.07;100652.97;1726381;83;21033;-74
2021/07/08 07:37:37;;;;;;;6.00;4.37;;;;;;;27.54;52.43;100651.20;1726658;83;20988;-71
2021/07/08 07:40:07;;;;;;;10.50;4.08;;;;;;;27.64;52.56;100652.97;1699417;83;21051;-73
2021/07/08 07:42:38;;;;;;;5.80;4.72;;;;;;;27.75;52.74;100651.97;1721961;82;21021;-73
2021/07/08 07:45:04;;;;;;;6.87;3.92;;;;;;;27.84;51.95;100653.26;1711649;83;21012;-72
2021/07/08 07:47:31;;;;;;;8.85;4.65;;;;;;;27.89;51.95;100656.61;1712070;83;21521;-73
2021/07/08 07:49:59;;;;;;;9.88;5.65;;;;;;;27.95;51.84;100660.78;1725864;83;21035;-73
2021/07/08 07:52:25;;;;;;;7.45;4.87;;;;;;;28.02;51.68;100655.48;1697273;84;21200;-73
2021/07/08 07:54:52;;;;;;;7.08;4.62;;;;;;;28.13;50.85;100655.88;1715805;83;20988;-76
2021/07/08 07:57:18;;;;;;;10.03;3.60;;;;;;;28.18;50.26;100656.47;1703494;83;20979;-73
2021/07/08 07:59:45;;;;;;;4.08;3.65;;;;;;;28.22;48.88;100657.96;1726424;83;21020;-73
2021/07/08 08:02:14;;;;;;;4.53;4.12;;;;;;;28.22;47.62;100661.30;1726338;83;21076;-73
2021/07/08 08:05:06;;;;;;;4.87;3.45;;;;;;;28.25;47.36;100667.55;1703298;83;21217;-74
2021/07/08 08:10:09;;;;;;;7.28;4.08;;;;;;;28.37;48.41;100664.20;1697303;84;21029;-74
2021/07/08 08:12:35;;;;;;;12.45;6.80;;;;;;;28.47;48.10;100672.05;1661519;84;21027;-75
2021/07/08 08:15:05;;;;;;;16.27;5.45;;;;;;;28.51;46.94;100666.05;1661313;84;21592;-74
2021/07/08 08:17:33;;;;;;;14.47;6.50;;;;;;;28.55;47.05;100667.53;1697715;84;21154;-73
2021/07/08 08:19:59;;;;;;;10.08;6.10;;;;;;;28.64;46.92;100668.22;1675554;84;20984;-73
2021/07/08 08:22:25;;;;;;;10.93;4.20;;;;;;;28.71;46.55;100675.41;1701690;83;21500;-74
2021/07/08 08:24:52;;;;;;;6.95;4.05;;;;;;;28.80;45.48;100670.55;1726347;83;20971;-73
2021/07/08 08:27:19;;;;;;;5.97;3.50;;;;;;;28.88;44.94;100671.00;1703215;83;21035;-74
2021/07/08 08:29:45;;;;;;;8.23;3.40;;;;;;;28.94;44.39;100666.84;1726362;82;21235;-74
2021/07/08 08:32:11;;;;;;;12.50;4.25;;;;;;;28.98;44.81;100669.13;1726440;83;21035;-73
2021/07/08 08:34:38;;;;;;;5.42;3.45;;;;;;;29.07;44.85;100680.08;1726492;83;20940;-74
2021/07/08 08:37:06;;;;;;;6.83;3.47;;;;;;;29.15;44.57;100678.34;1726483;83;21548;-73
2021/07/08 08:39:33;;;;;;;9.33;4.35;;;;;;;29.18;44.53;100674.28;1718156;83;21008;-75
2021/07/08 08:42:00;;;;;;;11.75;4.15;;;;;;;29.18;43.65;100677.05;1714796;83;22199;-74
2021/07/08 08:44:26;;;;;;;10.95;4.85;;;;;;;29.20;43.58;100676.14;1696025;83;21544;-75
2021/07/08 08:46:53;;;;;;;9.65;4.50;;;;;;;29.24;44.28;100675.66;1696140;83;21023;-76
2021/07/08 08:49:19;;;;;;;9.85;3.80;;;;;;;29.29;44.59;100681.53;1709618;82;21033;-74
2021/07/08 08:51:46;;;;;;;8.65;3.90;;;;;;;29.30;44.77;100674.84;1700885;83;21562;-73
2021/07/08 08:54:12;;;;;;;6.65;3.90;;;;;;;29.29;44.68;100675.98;1714685;83;21127;-75
2021/07/08 08:56:38;;;;;;;7.22;3.75;;;;;;;29.23;44.53;100672.66;1714772;83;20960;-71
2021/07/08 08:59:05;;;;;;;5.85;3.60;;;;;;;29.23;43.70;100665.72;1711290;83;20987;-72
2021/07/08 09:01:33;;;;;;;7.92;3.80;;;;;;;29.23;42.94;100669.07;1711416;83;21329;-73
2021/07/08 09:03:59;;;;;;;6.20;3.95;;;;;;;29.22;42.74;100671.61;1712811;83;21347;-71
2021/07/08 09:06:28;;;;;;;3.98;3.58;;;;;;;29.23;41.71;100672.66;1710423;83;21514;-73
2021/07/08 09:08:54;;;;;;;5.30;3.15;;;;;;;29.22;41.33;100670.22;1692793;83;21521;-74
2021/07/08 09:11:26;;;;;;;9.15;3.77;;;;;;;29.25;41.46;100665.38;1714522;82;21037;-73
2021/07/08 09:14:05;;;;;;;4.70;3.75;;;;;;;29.29;40.53;100672.64;1715123;83;21325;-73
2021/07/08 09:16:36;;;;;;;6.25;3.75;;;;;;;29.31;41.10;100673.69;1696142;83;20936;-73
2021/07/08 09:19:18;;;;;;;10.90;3.55;;;;;;;29.38;40.67;100676.10;1696467;83;21039;-72
2021/07/08 09:21:52;;;;;;;7.65;3.62;;;;;;;29.50;40.52;100672.45;1714477;83;21032;-73
2021/07/08 09:24:26;;;;;;;6.33;3.62;;;;;;;29.61;40.28;100672.19;1714804;83;21035;-73
2021/07/08 09:27:05;;;;;;;7.22;3.85;;;;;;;29.69;39.69;100664.28;1713069;83;21033;-74
2021/07/08 09:29:41;;;;;;;12.20;3.85;;;;;;;29.73;39.67;100667.17;1717967;83;21608;-73
2021/07/08 09:32:23;;;;;;;8.53;2.70;;;;;;;29.81;39.90;100671.16;1728479;82;21245;-71
2021/07/08 09:34:57;;;;;;;9.48;3.75;;;;;;;29.89;39.61;100666.05;1714644;83;20937;-73
2021/07/08 09:37:28;;;;;;;7.35;2.75;;;;;;;29.86;39.21;100665.94;1714291;83;20914;-74
2021/07/08 09:39:58;;;;;;;3.22;2.92;;;;;;;29.79;36.71;100660.19;1694112;83;21544;-76
2021/07/08 09:42:43;;;;;;;6.85;2.87;;;;;;;29.81;36.44;100660.06;1711017;83;21059;-76
2021/07/08 09:45:13;;;;;;;7.15;3.40;;;;;;;29.81;36.91;100662.03;1710836;83;21611;-74
2021/07/08 09:47:41;;;;;;;5.97;3.15;;;;;;;29.84;37.30;100656.57;1719153;83;21548;-72
2021/07/08 09:50:24;;;;;;;3.83;3.27;;;;;;;29.93;37.59;100655.04;1718470;82;21093;-72
2021/07/08 09:53:51;;;;;;;6.95;4.40;;;;;;;30.03;37.62;100651.73;1719574;82;20940;-76
2021/07/08 09:58:54;;;;;;;8.80;3.00;;;;;;;30.26;37.74;100656.11;1708980;83;21978;-76
2021/07/08 10:01:22;;;;;;;7.12;3.17;;;;;;;30.36;37.74;100659.70;1719654;83;21015;-75
2021/07/08 10:03:51;;;;;;;10.98;3.15;;;;;;;30.41;37.65;100652.48;1717207;83;21469;-74
2021/07/08 10:06:18;;;;;;;3.65;3.35;;;;;;;30.42;37.99;100647.75;1719465;83;21551;-75
2021/07/08 10:08:44;;;;;;;3.35;3.05;;;;;;;30.43;37.76;100650.75;1719796;83;21031;-75
2021/07/08 10:11:14;;;;;;;6.90;4.08;;;;;;;30.40;38.52;100647.31;1697737;83;21136;-75
2021/07/08 10:13:40;;;;;;;2.67;2.40;;;;;;;30.38;38.94;100649.05;1707055;83;20901;-74
2021/07/08 10:16:09;;;;;;;4.47;3.05;;;;;;;30.41;38.97;100644.16;1696857;83;21039;-75
2021/07/08 10:18:41;;;;;;;9.58;3.60;;;;;;;30.49;39.00;100649.34;1715400;83;21516;-79
2021/07/08 10:21:09;;;;;;;8.00;3.10;;;;;;;30.48;38.36;100649.12;1718296;82;21040;-74
2021/07/08 10:23:37;;;;;;;6.70;3.20;;;;;;;30.41;37.53;100648.94;1708133;83;21253;-73
2021/07/08 10:26:06;;;;;;;2.90;2.52;;;;;;;30.38;38.16;100642.11;1716484;83;21118;-72
2021/07/08 10:28:35;;;;;;;4.97;3.90;;;;;;;30.46;38.98;100638.95;1707051;83;20993;-74
2021/07/08 10:31:02;;;;;;;5.22;3.65;;;;;;;30.58;39.00;100638.85;1705597;83;21047;-72
2021/07/08 10:33:29;;;;;;;10.10;4.42;;;;;;;30.69;38.82;100638.52;1718517;83;20943;-73
2021/07/08 10:35:57;;;;;;;14.98;4.15;;;;;;;30.77;38.83;100635.31;1716353;83;21369;-71
2021/07/08 10:38:40;;;;;;;5.92;3.90;;;;;;;30.83;38.84;100630.51;1709992;83;21473;-72
2021/07/08 10:41:12;;;;;;;;;;;;;;;30.85;38.44;100628.73;1715373;83;21082;-71
2021/07/08 10:43:42;;;;;;;4.72;3.17;;;;;;;30.84;38.65;100627.15;1718884;83;20193;-71
2021/07/08 10:46:15;;;;;;;10.82;3.33;;;;;;;30.82;38.75;100630.28;1695425;83;21051;-76
2021/07/08 10:48:49;;;;;;;5.55;3.33;;;;;;;30.78;38.21;100628.02;1719627;83;21119;-76
2021/07/08 10:51:41;;;;;;;6.90;3.92;;;;;;;30.79;38.20;100621.30;1685956;84;20996;-76
2021/07/08 10:54:30;;;;;;;8.90;3.95;;;;;;;30.71;38.82;100629.22;1691862;84;21104;-75
2021/07/08 10:56:58;;;;;;;9.00;4.30;;;;;;;30.77;39.06;100627.78;1648596;84;21029;-76
2021/07/08 10:59:40;;;;;;;7.78;3.77;;;;;;;30.87;38.28;100625.83;1707852;83;21504;-76
2021/07/08 11:02:06;;;;;;;6.55;3.15;;;;;;;30.95;37.28;100622.02;1708157;82;21850;-72
2021/07/08 11:04:48;;;;;;;7.35;2.87;;;;;;;30.94;36.72;100624.58;1709830;83;21368;-74
2021/07/08 11:07:19;;;;;;;6.28;3.50;;;;;;;30.93;36.57;100619.41;1729744;82;21023;-70
2021/07/08 11:10:02;;;;;;;17.02;3.98;;;;;;;31.00;36.90;100618.15;1716824;83;21478;-77
2021/07/08 11:12:32;;;;;;;7.83;5.10;;;;;;;31.07;37.05;100613.59;1721823;82;20956;-75
2021/07/08 11:15:01;;;;;;;4.40;3.80;;;;;;;31.15;36.52;100617.31;1729342;82;21032;-79
2021/07/08 11:17:42;;;;;;;7.40;3.72;;;;;;;31.17;36.56;100616.37;1715319;83;20948;-76
2021/07/08 11:20:29;;;;;;;7.25;3.75;;;;;;;31.17;37.54;100610.81;1724378;83;21004;-74
2021/07/08 11:22:57;;;;;;;8.13;3.85;;;;;;;31.11;37.08;100608.91;1697332;83;21524;-88
2021/07/08 11:25:41;;;;;;;5.45;4.03;;;;;;;31.11;37.37;100608.10;1711851;83;21044;-78
2021/07/08 11:28:28;;;;;;;6.80;3.98;;;;;;;31.19;37.64;100604.28;1716981;83;21947;-77
2021/07/08 11:31:06;;;;;;;3.08;2.87;;;;;;;31.34;37.93;100600.63;1719240;83;21063;-72
2021/07/08 11:33:37;;;;;;;3.50;3.17;;;;;;;31.54;36.61;100596.65;1718923;83;20948;-74
2021/07/08 11:36:21;;;;;;;3.05;2.85;;;;;;;31.64;35.76;100607.78;1700766;83;21064;-74